ENGK

Gullknapp Flpl Airport

Norway
METAR ENGK 160550Z 17008KT 140V220 7000 -RADZ BKN004 16/16 Q1009
Observed Flight Rules
Aug-16 @ 05:50 UTC (26 minutes ago) Instrument Flight Rules
Wind Visibility Clouds Conditions
170° at 8 knots 7,001 meters
  • Broken at 400' AGL
  • Light Rain
  • Light Drizzle
Temperatures Readings
Current 16°C / 61°F
Dewpoint 16°C / 61°F
Humidity 100%
Altimeter 29.79" Hg
Pressure 1009 hPa
Elevation 119
METAR ENGK 160550Z 17008KT 140V220 7000 -RADZ BKN004 16/16 Q1009
Observed Flight Rules
Aug-16 @ 05:50 UTC
(26 minutes ago)
LIFR
Wind Visibility
170° at 8 knots 7,001 meters
Clouds
  • Broken at 400' AGL
Conditions
  • Light Rain
  • Light Drizzle
Temperature Dewpoint
16°C / 61°F 16°C / 61°F
Humidity Altimeter Pressure
100% 29.79" Hg 1009 hPa